TimeEST,TemperatureF,Dew PointF,Humidity,Sea Level PressureIn,VisibilityMPH,Wind Direction,Wind SpeedMPH,Gust SpeedMPH,PrecipitationIn,Events,Conditions,WindDirDegrees,DateUTC
12:54 AM,28.0,26.1,92,29.99,7.0,West,8.1,-,N/A,,Overcast,280,2012-12-11 05:54:00
1:18 AM,28.4,24.8,86,29.97,8.0,WNW,8.1,-,N/A,,Overcast,290,2012-12-11 06:18:00
1:54 AM,28.9,25.0,85,29.99,8.0,West,9.2,-,N/A,,Overcast,280,2012-12-11 06:54:00
2:54 AM,28.0,25.0,88,30.02,9.0,WNW,10.4,-,N/A,,Overcast,290,2012-12-11 07:54:00
3:54 AM,28.0,25.0,88,30.04,9.0,West,8.1,-,N/A,,Overcast,280,2012-12-11 08:54:00
4:54 AM,28.0,25.0,88,30.03,9.0,West,6.9,-,N/A,,Overcast,260,2012-12-11 09:54:00
5:54 AM,28.0,24.1,85,30.05,10.0,West,8.1,17.3,N/A,,Overcast,280,2012-12-11 10:54:00
6:39 AM,28.4,21.2,74,30.04,10.0,West,10.4,-,N/A,,Overcast,270,2012-12-11 11:39:00
6:54 AM,28.0,21.9,78,30.07,10.0,West,10.4,-,N/A,,Overcast,280,2012-12-11 11:54:00
7:54 AM,26.1,21.0,81,30.09,10.0,West,8.1,-,N/A,,Scattered Clouds,270,2012-12-11 12:54:00
8:54 AM,26.1,21.0,81,30.11,10.0,West,5.8,-,N/A,,Clear,270,2012-12-11 13:54:00
9:54 AM,28.0,21.0,75,30.12,10.0,WSW,6.9,-,N/A,,Partly Cloudy,250,2012-12-11 14:54:00
10:54 AM,28.9,21.0,72,30.13,10.0,WSW,6.9,-,N/A,,Clear,240,2012-12-11 15:54:00
11:54 AM,32.0,21.0,64,30.12,10.0,WSW,9.2,-,N/A,,Scattered Clouds,240,2012-12-11 16:54:00
12:54 PM,32.0,19.9,61,30.11,10.0,SW,10.4,18.4,N/A,,Partly Cloudy,220,2012-12-11 17:54:00
1:54 PM,33.1,19.9,59,30.10,10.0,SSW,9.2,-,N/A,,Scattered Clouds,210,2012-12-11 18:54:00
2:54 PM,34.0,19.9,56,30.09,10.0,SW,11.5,18.4,N/A,,Clear,220,2012-12-11 19:54:00
3:54 PM,34.0,19.9,56,30.10,10.0,WSW,12.7,19.6,N/A,,Clear,240,2012-12-11 20:54:00
4:54 PM,33.1,19.9,59,30.12,10.0,SW,6.9,-,N/A,,Clear,230,2012-12-11 21:54:00
5:54 PM,30.9,21.0,67,30.14,10.0,SW,5.8,-,N/A,,Clear,230,2012-12-11 22:54:00
6:54 PM,30.0,21.0,69,30.14,10.0,Calm,Calm,-,N/A,,Clear,0,2012-12-11 23:54:00
7:54 PM,28.9,21.9,75,30.16,10.0,SW,3.5,-,N/A,,Clear,220,2012-12-12 00:54:00
8:54 PM,28.9,21.0,72,30.18,10.0,SW,5.8,-,N/A,,Clear,230,2012-12-12 01:54:00
9:54 PM,27.0,21.0,78,30.19,10.0,WSW,4.6,-,N/A,,Clear,250,2012-12-12 02:54:00
10:54 PM,27.0,21.0,78,30.22,10.0,WSW,3.5,-,N/A,,Clear,240,2012-12-12 03:54:00
11:54 PM,27.0,21.0,78,30.22,10.0,SW,3.5,-,N/A,,Clear,230,2012-12-12 04:54:00